sensor_id;sensor_type;location;lat;lon;timestamp;pressure;altitude;pressure_sealevel;temperature;humidity
19797;BME280;10058;57.654;12.044;2024-01-30T00:01:42;101950.28;;;10.25;100.00
19797;BME280;10058;57.654;12.044;2024-01-30T00:04:07;101956.16;;;10.37;100.00
19797;BME280;10058;57.654;12.044;2024-01-30T00:06:32;101941.47;;;10.44;100.00
19797;BME280;10058;57.654;12.044;2024-01-30T00:08:57;101933.47;;;10.42;100.00
19797;BME280;10058;57.654;12.044;2024-01-30T00:11:23;101940.00;;;10.31;100.00
19797;BME280;10058;57.654;12.044;2024-01-30T00:13:50;101943.78;;;10.36;100.00
19797;BME280;10058;57.654;12.044;2024-01-30T00:16:22;101934.56;;;10.28;100.00
19797;BME280;10058;57.654;12.044;2024-01-30T00:18:47;101944.38;;;10.31;100.00
19797;BME280;10058;57.654;12.044;2024-01-30T00:21:12;101949.22;;;10.22;100.00
19797;BME280;10058;57.654;12.044;2024-01-30T00:23:38;101943.47;;;10.30;100.00
19797;BME280;10058;57.654;12.044;2024-01-30T00:26:03;101933.50;;;10.25;100.00
19797;BME280;10058;57.654;12.044;2024-01-30T00:28:29;101927.78;;;10.16;100.00
19797;BME280;10058;57.654;12.044;2024-01-30T00:30:54;101922.34;;;10.30;100.00
19797;BME280;10058;57.654;12.044;2024-01-30T00:33:19;101913.91;;;10.20;100.00
19797;BME280;10058;57.654;12.044;2024-01-30T00:35:44;101917.81;;;10.10;100.00
19797;BME280;10058;57.654;12.044;2024-01-30T00:38:09;101918.28;;;10.19;100.00
19797;BME280;10058;57.654;12.044;2024-01-30T00:40:35;101914.63;;;10.17;100.00
19797;BME280;10058;57.654;12.044;2024-01-30T00:43:00;101916.22;;;10.31;100.00
19797;BME280;10058;57.654;12.044;2024-01-30T00:45:25;101917.88;;;10.29;100.00
19797;BME280;10058;57.654;12.044;2024-01-30T00:47:50;101928.97;;;10.22;100.00
19797;BME280;10058;57.654;12.044;2024-01-30T00:50:15;101929.44;;;10.31;100.00
19797;BME280;10058;57.654;12.044;2024-01-30T00:52:41;101930.34;;;10.32;100.00
19797;BME280;10058;57.654;12.044;2024-01-30T00:55:07;101926.56;;;10.27;100.00
19797;BME280;10058;57.654;12.044;2024-01-30T00:57:32;101919.75;;;10.14;100.00
19797;BME280;10058;57.654;12.044;2024-01-30T00:59:57;101902.44;;;10.19;100.00
19797;BME280;10058;57.654;12.044;2024-01-30T01:02:23;101916.75;;;10.24;100.00
19797;BME280;10058;57.654;12.044;2024-01-30T01:04:48;101912.38;;;10.25;100.00
19797;BME280;10058;57.654;12.044;2024-01-30T01:07:13;101913.72;;;10.17;100.00
19797;BME280;10058;57.654;12.044;2024-01-30T01:09:38;101914.19;;;10.08;100.00
19797;BME280;10058;57.654;12.044;2024-01-30T01:12:04;101912.53;;;10.10;100.00
19797;BME280;10058;57.654;12.044;2024-01-30T01:14:29;101910.78;;;10.28;100.00
19797;BME280;10058;57.654;12.044;2024-01-30T01:16:54;101912.53;;;10.28;100.00
19797;BME280;10058;57.654;12.044;2024-01-30T01:19:20;101916.91;;;10.27;100.00
19797;BME280;10058;57.654;12.044;2024-01-30T01:21:45;101924.75;;;10.08;100.00
19797;BME280;10058;57.654;12.044;2024-01-30T01:24:10;101916.91;;;10.27;100.00
19797;BME280;10058;57.654;12.044;2024-01-30T01:26:35;101923.78;;;10.24;100.00
19797;BME280;10058;57.654;12.044;2024-01-30T01:29:01;101924.75;;;10.26;100.00
19797;BME280;10058;57.654;12.044;2024-01-30T01:31:26;101925.63;;;10.44;100.00
19797;BME280;10058;57.654;12.044;2024-01-30T01:33:54;101930.06;;;10.45;100.00
19797;BME280;10058;57.654;12.044;2024-01-30T01:36:19;101924.50;;;10.58;100.00
19797;BME280;10058;57.654;12.044;2024-01-30T01:38:45;101923.47;;;10.55;100.00
19797;BME280;10058;57.654;12.044;2024-01-30T01:41:12;101928.78;;;10.55;100.00
19797;BME280;10058;57.654;12.044;2024-01-30T01:43:37;101925.41;;;10.59;100.00
19797;BME280;10058;57.654;12.044;2024-01-30T01:46:04;101921.53;;;10.51;100.00
19797;BME280;10058;57.654;12.044;2024-01-30T01:48:29;101916.63;;;10.40;100.00
19797;BME280;10058;57.654;12.044;2024-01-30T01:50:54;101912.47;;;10.45;100.00
19797;BME280;10058;57.654;12.044;2024-01-30T01:53:20;101921.66;;;10.54;100.00
19797;BME280;10058;57.654;12.044;2024-01-30T01:55:45;101900.53;;;10.54;100.00
19797;BME280;10058;57.654;12.044;2024-01-30T01:58:10;101911.34;;;10.40;100.00
19797;BME280;10058;57.654;12.044;2024-01-30T02:00:37;101908.03;;;10.64;100.00
19797;BME280;10058;57.654;12.044;2024-01-30T02:03:06;101908.72;;;10.79;100.00
19797;BME280;10058;57.654;12.044;2024-01-30T02:05:31;101897.22;;;10.78;100.00
19797;BME280;10058;57.654;12.044;2024-01-30T02:07:56;101894.13;;;10.68;100.00
19797;BME280;10058;57.654;12.044;2024-01-30T02:10:22;101894.19;;;10.50;100.00
19797;BME280;10058;57.654;12.044;2024-01-30T02:12:48;101899.19;;;10.44;100.00
19797;BME280;10058;57.654;12.044;2024-01-30T02:15:13;101894.78;;;10.44;100.00
19797;BME280;10058;57.654;12.044;2024-01-30T02:17:39;101878.53;;;10.55;100.00
19797;BME280;10058;57.654;12.044;2024-01-30T02:20:04;101886.03;;;10.45;100.00
19797;BME280;10058;57.654;12.044;2024-01-30T02:22:30;101886.31;;;10.52;100.00
19797;BME280;10058;57.654;12.044;2024-01-30T02:24:57;101888.28;;;10.56;100.00
19797;BME280;10058;57.654;12.044;2024-01-30T02:27:22;101894.38;;;10.74;100.00
19797;BME280;10058;57.654;12.044;2024-01-30T02:29:47;101910.38;;;10.58;100.00
19797;BME280;10058;57.654;12.044;2024-01-30T02:32:12;101903.03;;;10.70;100.00
19797;BME280;10058;57.654;12.044;2024-01-30T02:34:37;101903.09;;;10.71;100.00
19797;BME280;10058;57.654;12.044;2024-01-30T02:37:03;101904.69;;;10.49;100.00
19797;BME280;10058;57.654;12.044;2024-01-30T02:39:28;101900.63;;;10.57;100.00
19797;BME280;10058;57.654;12.044;2024-01-30T02:41:53;101899.25;;;10.65;100.00
19797;BME280;10058;57.654;12.044;2024-01-30T02:44:19;101893.81;;;10.62;100.00
19797;BME280;10058;57.654;12.044;2024-01-30T02:46:45;101882.56;;;10.66;100.00
19797;BME280;10058;57.654;12.044;2024-01-30T02:49:10;101880.06;;;10.69;100.00
19797;BME280;10058;57.654;12.044;2024-01-30T02:51:35;101894.81;;;10.64;100.00
19797;BME280;10058;57.654;12.044;2024-01-30T02:54:01;101881.03;;;10.71;100.00
19797;BME280;10058;57.654;12.044;2024-01-30T02:56:26;101880.75;;;10.45;100.00
19797;BME280;10058;57.654;12.044;2024-01-30T02:58:51;101873.50;;;10.41;100.00
19797;BME280;10058;57.654;12.044;2024-01-30T03:01:16;101872.28;;;10.53;100.00
19797;BME280;10058;57.654;12.044;2024-01-30T03:03:41;101865.56;;;10.61;100.00
19797;BME280;10058;57.654;12.044;2024-01-30T03:06:08;101864.88;;;10.65;100.00
19797;BME280;10058;57.654;12.044;2024-01-30T03:08:34;101856.56;;;10.56;100.00
19797;BME280;10058;57.654;12.044;2024-01-30T03:11:00;101857.41;;;10.55;100.00
19797;BME280;10058;57.654;12.044;2024-01-30T03:13:25;101862.94;;;10.41;100.00
19797;BME280;10058;57.654;12.044;2024-01-30T03:15:50;101861.84;;;10.56;100.00
19797;BME280;10058;57.654;12.044;2024-01-30T03:18:15;101867.91;;;10.53;100.00
19797;BME280;10058;57.654;12.044;2024-01-30T03:20:40;101874.09;;;10.54;100.00
19797;BME280;10058;57.654;12.044;2024-01-30T03:23:06;101869.50;;;10.50;100.00
19797;BME280;10058;57.654;12.044;2024-01-30T03:25:31;101864.19;;;10.30;100.00
19797;BME280;10058;57.654;12.044;2024-01-30T03:27:56;101863.66;;;10.37;100.00
19797;BME280;10058;57.654;12.044;2024-01-30T03:30:21;101851.97;;;10.32;100.00
19797;BME280;10058;57.654;12.044;2024-01-30T03:32:47;101848.81;;;10.41;100.00
19797;BME280;10058;57.654;12.044;2024-01-30T03:35:12;101853.63;;;10.30;100.00
19797;BME280;10058;57.654;12.044;2024-01-30T03:37:37;101843.47;;;10.39;100.00
19797;BME280;10058;57.654;12.044;2024-01-30T03:40:03;101849.16;;;10.49;100.00
19797;BME280;10058;57.654;12.044;2024-01-30T03:42:28;101857.41;;;10.35;100.00
19797;BME280;10058;57.654;12.044;2024-01-30T03:44:53;101863.50;;;10.54;100.00
19797;BME280;10058;57.654;12.044;2024-01-30T03:47:20;101855.97;;;10.43;100.00
19797;BME280;10058;57.654;12.044;2024-01-30T03:49:45;101849.78;;;10.43;100.00
19797;BME280;10058;57.654;12.044;2024-01-30T03:52:10;101855.59;;;10.54;100.00
19797;BME280;10058;57.654;12.044;2024-01-30T03:54:35;101857.47;;;10.37;100.00
19797;BME280;10058;57.654;12.044;2024-01-30T03:57:01;101856.66;;;10.59;100.00
19797;BME280;10058;57.654;12.044;2024-01-30T03:59:26;101856.66;;;10.59;100.00
19797;BME280;10058;57.654;12.044;2024-01-30T04:01:51;101817.59;;;10.32;100.00
19797;BME280;10058;57.654;12.044;2024-01-30T04:04:17;101854.09;;;10.60;100.00
19797;BME280;10058;57.654;12.044;2024-01-30T04:06:42;101852.66;;;10.48;100.00
19797;BME280;10058;57.654;12.044;2024-01-30T04:09:07;101856.41;;;10.53;100.00
19797;BME280;10058;57.654;12.044;2024-01-30T04:11:32;101850.47;;;10.58;100.00
19797;BME280;10058;57.654;12.044;2024-01-30T04:13:58;101845.84;;;10.53;100.00
19797;BME280;10058;57.654;12.044;2024-01-30T04:16:23;101851.28;;;10.56;100.00
19797;BME280;10058;57.654;12.044;2024-01-30T04:18:48;101850.41;;;10.57;100.00
19797;BME280;10058;57.654;12.044;2024-01-30T04:21:13;101849.66;;;10.40;100.00
19797;BME280;10058;57.654;12.044;2024-01-30T04:23:39;101850.44;;;10.37;100.00
19797;BME280;10058;57.654;12.044;2024-01-30T04:26:04;101859.13;;;10.35;100.00
19797;BME280;10058;57.654;12.044;2024-01-30T04:28:30;101852.50;;;10.44;100.00
19797;BME280;10058;57.654;12.044;2024-01-30T04:30:55;101859.53;;;10.25;100.00
19797;BME280;10058;57.654;12.044;2024-01-30T04:33:20;101859.53;;;10.07;100.00
19797;BME280;10058;57.654;12.044;2024-01-30T04:35:45;101871.75;;;10.05;100.00
19797;BME280;10058;57.654;12.044;2024-01-30T04:38:10;101861.34;;;10.08;100.00
19797;BME280;10058;57.654;12.044;2024-01-30T04:40:36;101866.09;;;10.15;100.00
19797;BME280;10058;57.654;12.044;2024-01-30T04:43:01;101872.53;;;10.20;100.00
19797;BME280;10058;57.654;12.044;2024-01-30T04:45:26;101872.56;;;10.02;100.00
19797;BME280;10058;57.654;12.044;2024-01-30T04:47:51;101864.63;;;10.20;100.00
19797;BME280;10058;57.654;12.044;2024-01-30T04:50:16;101850.06;;;10.30;100.00
19797;BME280;10058;57.654;12.044;2024-01-30T04:52:42;101844.88;;;10.31;100.00
19797;BME280;10058;57.654;12.044;2024-01-30T04:55:07;101843.75;;;10.45;100.00
19797;BME280;10058;57.654;12.044;2024-01-30T04:57:32;101847.22;;;10.44;100.00
19797;BME280;10058;57.654;12.044;2024-01-30T04:59:58;101823.22;;;10.40;100.00
19797;BME280;10058;57.654;12.044;2024-01-30T05:02:23;101790.81;;;10.25;100.00
19797;BME280;10058;57.654;12.044;2024-01-30T05:04:49;101829.41;;;10.40;100.00
19797;BME280;10058;57.654;12.044;2024-01-30T05:07:14;101831.88;;;10.55;100.00
19797;BME280;10058;57.654;12.044;2024-01-30T05:09:39;101823.03;;;10.55;100.00
19797;BME280;10058;57.654;12.044;2024-01-30T05:12:04;101832.78;;;10.36;100.00
19797;BME280;10058;57.654;12.044;2024-01-30T05:14:29;101837.69;;;10.48;100.00
19797;BME280;10058;57.654;12.044;2024-01-30T05:16:55;101843.75;;;10.45;100.00
19797;BME280;10058;57.654;12.044;2024-01-30T05:19:20;101834.53;;;10.18;100.00
19797;BME280;10058;57.654;12.044;2024-01-30T05:21:46;101827.75;;;10.42;100.00
19797;BME280;10058;57.654;12.044;2024-01-30T05:24:11;101832.25;;;10.45;100.00
19797;BME280;10058;57.654;12.044;2024-01-30T05:26:36;101835.88;;;10.47;100.00
19797;BME280;10058;57.654;12.044;2024-01-30T05:29:02;101831.91;;;10.18;100.00
19797;BME280;10058;57.654;12.044;2024-01-30T05:31:27;101832.19;;;10.24;100.00
19797;BME280;10058;57.654;12.044;2024-01-30T05:33:53;101829.69;;;10.27;100.00
19797;BME280;10058;57.654;12.044;2024-01-30T05:36:19;101828.13;;;10.13;100.00
19797;BME280;10058;57.654;12.044;2024-01-30T05:38:44;101815.13;;;10.18;100.00
19797;BME280;10058;57.654;12.044;2024-01-30T05:41:09;101820.66;;;10.41;100.00
19797;BME280;10058;57.654;12.044;2024-01-30T05:43:34;101820.09;;;10.29;100.00
19797;BME280;10058;57.654;12.044;2024-01-30T05:45:59;101823.66;;;10.49;100.00
19797;BME280;10058;57.654;12.044;2024-01-30T05:48:25;101813.63;;;10.42;100.00
19797;BME280;10058;57.654;12.044;2024-01-30T05:50:50;101812.16;;;10.49;100.00
19797;BME280;10058;57.654;12.044;2024-01-30T05:53:15;101815.66;;;10.28;100.00
19797;BME280;10058;57.654;12.044;2024-01-30T05:55:40;101814.75;;;10.28;100.00
19797;BME280;10058;57.654;12.044;2024-01-30T05:58:05;101817.88;;;10.19;100.00
19797;BME280;10058;57.654;12.044;2024-01-30T06:00:31;101809.97;;;10.19;100.00
19797;BME280;10058;57.654;12.044;2024-01-30T06:02:56;101801.38;;;10.25;100.00
19797;BME280;10058;57.654;12.044;2024-01-30T06:05:21;101794.00;;;10.18;100.00
19797;BME280;10058;57.654;12.044;2024-01-30T06:07:46;101800.13;;;10.17;100.00
19797;BME280;10058;57.654;12.044;2024-01-30T06:10:11;101802.44;;;10.28;100.00
19797;BME280;10058;57.654;12.044;2024-01-30T06:12:37;101809.63;;;10.13;100.00
19797;BME280;10058;57.654;12.044;2024-01-30T06:15:02;101807.13;;;10.16;100.00
19797;BME280;10058;57.654;12.044;2024-01-30T06:17:28;101805.34;;;10.15;100.00
19797;BME280;10058;57.654;12.044;2024-01-30T06:19:53;101802.16;;;10.22;100.00
19797;BME280;10058;57.654;12.044;2024-01-30T06:22:18;101807.72;;;10.28;100.00
19797;BME280;10058;57.654;12.044;2024-01-30T06:24:43;101808.41;;;10.43;100.00
19797;BME280;10058;57.654;12.044;2024-01-30T06:27:13;101805.38;;;10.34;100.00
19797;BME280;10058;57.654;12.044;2024-01-30T06:29:39;101810.19;;;10.06;100.00
19797;BME280;10058;57.654;12.044;2024-01-30T06:32:05;101814.25;;;10.17;100.00
19797;BME280;10058;57.654;12.044;2024-01-30T06:34:30;101809.91;;;10.00;100.00
19797;BME280;10058;57.654;12.044;2024-01-30T06:36:55;101790.06;;;10.27;100.00
19797;BME280;10058;57.654;12.044;2024-01-30T06:39:20;101791.47;;;10.19;100.00
19797;BME280;10058;57.654;12.044;2024-01-30T06:41:46;101784.63;;;10.24;100.00
19797;BME280;10058;57.654;12.044;2024-01-30T06:44:11;101789.88;;;9.86;100.00
19797;BME280;10058;57.654;12.044;2024-01-30T06:46:37;101792.66;;;10.08;100.00
19797;BME280;10058;57.654;12.044;2024-01-30T06:49:03;101784.44;;;10.20;100.00
19797;BME280;10058;57.654;12.044;2024-01-30T06:51:28;101786.88;;;10.34;100.00
19797;BME280;10058;57.654;12.044;2024-01-30T06:53:53;101783.78;;;10.25;100.00
19797;BME280;10058;57.654;12.044;2024-01-30T06:56:18;101784.06;;;10.12;100.00
19797;BME280;10058;57.654;12.044;2024-01-30T06:58:46;101771.69;;;10.11;100.00
19797;BME280;10058;57.654;12.044;2024-01-30T07:01:12;101763.38;;;10.21;100.00
19797;BME280;10058;57.654;12.044;2024-01-30T07:03:37;101755.47;;;10.21;100.00
19797;BME280;10058;57.654;12.044;2024-01-30T07:06:02;101764.19;;;10.01;100.00
19797;BME280;10058;57.654;12.044;2024-01-30T07:08:27;101758.47;;;9.92;100.00
19797;BME280;10058;57.654;12.044;2024-01-30T07:10:52;101758.19;;;9.86;100.00
19797;BME280;10058;57.654;12.044;2024-01-30T07:13:20;101745.25;;;10.11;100.00
19797;BME280;10058;57.654;12.044;2024-01-30T07:15:45;101741.25;;;10.00;100.00
19797;BME280;10058;57.654;12.044;2024-01-30T07:18:11;101753.75;;;9.85;100.00
19797;BME280;10058;57.654;12.044;2024-01-30T07:20:38;101746.22;;;9.94;100.00
19797;BME280;10058;57.654;12.044;2024-01-30T07:23:07;101753.81;;;9.86;100.00
19797;BME280;10058;57.654;12.044;2024-01-30T07:25:32;101759.59;;;10.16;100.00
19797;BME280;10058;57.654;12.044;2024-01-30T07:28:01;101759.72;;;10.00;100.00
19797;BME280;10058;57.654;12.044;2024-01-30T07:30:26;101771.06;;;9.60;100.00
19797;BME280;10058;57.654;12.044;2024-01-30T07:32:51;101766.50;;;9.75;100.00
19797;BME280;10058;57.654;12.044;2024-01-30T07:35:17;101760.19;;;10.10;100.00
19797;BME280;10058;57.654;12.044;2024-01-30T07:37:42;101753.63;;;10.01;100.00
19797;BME280;10058;57.654;12.044;2024-01-30T07:40:07;101756.94;;;9.97;100.00
19797;BME280;10058;57.654;12.044;2024-01-30T07:42:33;101755.00;;;10.12;100.00
19797;BME280;10058;57.654;12.044;2024-01-30T07:44:58;101754.00;;;10.10;100.00
19797;BME280;10058;57.654;12.044;2024-01-30T07:47:23;101745.53;;;10.17;100.00
19797;BME280;10058;57.654;12.044;2024-01-30T07:49:49;101746.38;;;10.16;100.00
19797;BME280;10058;57.654;12.044;2024-01-30T07:52:14;101752.63;;;10.18;100.00
19797;BME280;10058;57.654;12.044;2024-01-30T07:54:39;101748.81;;;10.31;100.00
19797;BME280;10058;57.654;12.044;2024-01-30T07:57:04;101745.97;;;10.26;100.00
19797;BME280;10058;57.654;12.044;2024-01-30T07:59:30;101742.84;;;10.16;100.00
19797;BME280;10058;57.654;12.044;2024-01-30T08:01:55;101731.34;;;10.15;100.00
19797;BME280;10058;57.654;12.044;2024-01-30T08:04:20;101726.06;;;10.15;100.00
19797;BME280;10058;57.654;12.044;2024-01-30T08:06:46;101716.59;;;10.19;100.00
19797;BME280;10058;57.654;12.044;2024-01-30T08:09:11;101705.09;;;10.18;100.00
19797;BME280;10058;57.654;12.044;2024-01-30T08:11:36;101697.88;;;9.95;100.00
19797;BME280;10058;57.654;12.044;2024-01-30T08:14:01;101670.47;;;9.93;100.00
19797;BME280;10058;57.654;12.044;2024-01-30T08:16:27;101671.00;;;10.05;100.00
19797;BME280;10058;57.654;12.044;2024-01-30T08:18:52;101672.59;;;9.81;100.00
19797;BME280;10058;57.654;12.044;2024-01-30T08:21:18;101683.38;;;10.06;100.00
19797;BME280;10058;57.654;12.044;2024-01-30T08:23:43;101688.66;;;9.85;100.00
19797;BME280;10058;57.654;12.044;2024-01-30T08:26:09;101683.94;;;10.37;100.00
19797;BME280;10058;57.654;12.044;2024-01-30T08:28:34;101671.88;;;10.44;100.00
19797;BME280;10058;57.654;12.044;2024-01-30T08:30:59;101672.63;;;10.41;100.00
19797;BME280;10058;57.654;12.044;2024-01-30T08:33:24;101659.50;;;10.64;100.00
19797;BME280;10058;57.654;12.044;2024-01-30T08:35:49;101659.50;;;10.64;100.00
19797;BME280;10058;57.654;12.044;2024-01-30T08:38:14;101646.66;;;10.73;100.00
19797;BME280;10058;57.654;12.044;2024-01-30T08:40:40;101646.06;;;10.80;100.00
19797;BME280;10058;57.654;12.044;2024-01-30T08:43:05;101670.19;;;10.67;100.00
19797;BME280;10058;57.654;12.044;2024-01-30T08:45:30;101688.31;;;10.18;100.00
19797;BME280;10058;57.654;12.044;2024-01-30T08:47:56;101678.47;;;10.54;100.00
19797;BME280;10058;57.654;12.044;2024-01-30T08:50:21;101672.63;;;10.83;100.00
19797;BME280;10058;57.654;12.044;2024-01-30T08:52:46;101680.91;;;10.91;100.00
19797;BME280;10058;57.654;12.044;2024-01-30T08:55:11;101684.38;;;10.27;100.00
19797;BME280;10058;57.654;12.044;2024-01-30T08:57:37;101691.00;;;10.80;100.00
19797;BME280;10058;57.654;12.044;2024-01-30T09:00:02;101697.69;;;10.93;100.00
19797;BME280;10058;57.654;12.044;2024-01-30T09:02:31;101684.59;;;10.96;100.00
19797;BME280;10058;57.654;12.044;2024-01-30T09:04:56;101685.50;;;10.96;100.00
19797;BME280;10058;57.654;12.044;2024-01-30T09:07:21;101680.09;;;10.93;100.00
19797;BME280;10058;57.654;12.044;2024-01-30T09:09:47;101684.22;;;11.07;100.00
19797;BME280;10058;57.654;12.044;2024-01-30T09:12:12;101683.56;;;10.92;100.00
19797;BME280;10058;57.654;12.044;2024-01-30T09:14:37;101681.97;;;10.75;100.00
19797;BME280;10058;57.654;12.044;2024-01-30T09:17:02;101683.97;;;9.80;100.00
19797;BME280;10058;57.654;12.044;2024-01-30T09:19:28;101683.53;;;10.09;100.00
19797;BME280;10058;57.654;12.044;2024-01-30T09:21:53;101672.41;;;10.16;100.00
19797;BME280;10058;57.654;12.044;2024-01-30T09:24:18;101663.53;;;9.95;100.00
19797;BME280;10058;57.654;12.044;2024-01-30T09:26:43;101657.97;;;9.89;100.00
19797;BME280;10058;57.654;12.044;2024-01-30T09:29:08;101664.06;;;10.07;100.00
19797;BME280;10058;57.654;12.044;2024-01-30T09:31:34;101661.28;;;10.23;100.00
19797;BME280;10058;57.654;12.044;2024-01-30T09:33:59;101659.38;;;10.19;100.00
19797;BME280;10058;57.654;12.044;2024-01-30T09:36:25;101658.78;;;10.07;100.00
19797;BME280;10058;57.654;12.044;2024-01-30T09:38:50;101656.00;;;10.23;100.00
19797;BME280;10058;57.654;12.044;2024-01-30T09:41:16;101650.03;;;10.08;100.00
19797;BME280;10058;57.654;12.044;2024-01-30T09:43:42;101662.03;;;9.81;100.00
19797;BME280;10058;57.654;12.044;2024-01-30T09:46:13;101660.38;;;9.63;100.00
19797;BME280;10058;57.654;12.044;2024-01-30T09:48:41;101657.84;;;9.86;100.00
19797;BME280;10058;57.654;12.044;2024-01-30T09:51:07;101660.28;;;9.81;100.00
19797;BME280;10058;57.654;12.044;2024-01-30T09:53:33;101658.09;;;9.92;100.00
19797;BME280;10058;57.654;12.044;2024-01-30T09:55:58;101649.88;;;9.84;100.00
19797;BME280;10058;57.654;12.044;2024-01-30T09:58:23;101658.25;;;9.95;100.00
19797;BME280;10058;57.654;12.044;2024-01-30T10:00:48;101652.09;;;10.15;100.00
19797;BME280;10058;57.654;12.044;2024-01-30T10:03:14;101643.69;;;9.84;100.00
19797;BME280;10058;57.654;12.044;2024-01-30T10:05:40;101652.25;;;10.18;100.00
19797;BME280;10058;57.654;12.044;2024-01-30T10:08:05;101645.84;;;10.32;100.00
19797;BME280;10058;57.654;12.044;2024-01-30T10:10:31;101654.09;;;10.19;100.00
19797;BME280;10058;57.654;12.044;2024-01-30T10:12:56;101666.84;;;10.29;100.00
19797;BME280;10058;57.654;12.044;2024-01-30T10:15:21;101670.84;;;10.20;100.00
19797;BME280;10058;57.654;12.044;2024-01-30T10:17:46;101669.13;;;10.22;100.00
19797;BME280;10058;57.654;12.044;2024-01-30T10:20:12;101658.78;;;10.07;100.00
19797;BME280;10058;57.654;12.044;2024-01-30T10:22:38;101653.56;;;10.49;100.00
19797;BME280;10058;57.654;12.044;2024-01-30T10:25:04;101648.47;;;10.96;100.00
19797;BME280;10058;57.654;12.044;2024-01-30T10:27:30;101643.75;;;9.85;100.00
19797;BME280;10058;57.654;12.044;2024-01-30T10:29:55;101655.31;;;10.48;100.00
19797;BME280;10058;57.654;12.044;2024-01-30T10:32:21;101651.44;;;10.61;100.00
19797;BME280;10058;57.654;12.044;2024-01-30T10:34:46;101662.19;;;10.86;100.00
19797;BME280;10058;57.654;12.044;2024-01-30T10:37:11;101666.16;;;10.97;100.00
19797;BME280;10058;57.654;12.044;2024-01-30T10:39:43;101658.44;;;10.81;100.00
19797;BME280;10058;57.654;12.044;2024-01-30T10:42:13;101658.44;;;10.81;100.00
19797;BME280;10058;57.654;12.044;2024-01-30T10:47:12;101649.53;;;10.79;100.00
19797;BME280;10058;57.654;12.044;2024-01-30T10:49:43;101656.28;;;10.29;100.00
19797;BME280;10058;57.654;12.044;2024-01-30T10:52:08;101651.41;;;10.38;100.00
19797;BME280;10058;57.654;12.044;2024-01-30T10:54:34;101642.84;;;10.87;100.00
19797;BME280;10058;57.654;12.044;2024-01-30T10:56:59;101644.72;;;10.91;100.00
19797;BME280;10058;57.654;12.044;2024-01-30T10:59:26;101642.06;;;10.90;100.00
19797;BME280;10058;57.654;12.044;2024-01-30T11:01:52;101633.41;;;10.51;100.00
19797;BME280;10058;57.654;12.044;2024-01-30T11:04:18;101622.63;;;10.89;100.00
19797;BME280;10058;57.654;12.044;2024-01-30T11:06:43;101618.03;;;10.63;100.00
19797;BME280;10058;57.654;12.044;2024-01-30T11:09:10;101609.44;;;10.68;100.00
19797;BME280;10058;57.654;12.044;2024-01-30T11:11:56;101619.34;;;10.74;100.00
19797;BME280;10058;57.654;12.044;2024-01-30T11:14:25;101599.91;;;10.72;100.00
19797;BME280;10058;57.654;12.044;2024-01-30T11:16:50;101583.03;;;10.48;100.00
19797;BME280;10058;57.654;12.044;2024-01-30T11:19:21;101570.44;;;10.85;100.00
19797;BME280;10058;57.654;12.044;2024-01-30T11:21:47;101574.28;;;10.93;100.00
19797;BME280;10058;57.654;12.044;2024-01-30T11:24:15;101575.41;;;11.22;100.00
19797;BME280;10058;57.654;12.044;2024-01-30T11:26:42;101576.31;;;11.23;100.00
19797;BME280;10058;57.654;12.044;2024-01-30T11:29:07;101570.19;;;10.79;100.00
19797;BME280;10058;57.654;12.044;2024-01-30T11:31:33;101569.25;;;10.99;100.00
19797;BME280;10058;57.654;12.044;2024-01-30T11:33:58;101563.63;;;10.47;100.00
19797;BME280;10058;57.654;12.044;2024-01-30T11:36:25;101554.22;;;10.76;100.00
19797;BME280;10058;57.654;12.044;2024-01-30T11:38:50;101555.88;;;10.96;100.00
19797;BME280;10058;57.654;12.044;2024-01-30T11:41:15;101559.56;;;10.55;100.00
19797;BME280;10058;57.654;12.044;2024-01-30T11:43:41;101549.28;;;11.07;100.00
19797;BME280;10058;57.654;12.044;2024-01-30T11:46:06;101543.47;;;11.18;100.00
19797;BME280;10058;57.654;12.044;2024-01-30T11:48:32;101541.69;;;11.16;100.00
19797;BME280;10058;57.654;12.044;2024-01-30T11:50:57;101543.75;;;10.79;100.00
19797;BME280;10058;57.654;12.044;2024-01-30T11:53:22;101544.03;;;11.33;100.00
19797;BME280;10058;57.654;12.044;2024-01-30T11:55:50;101542.50;;;11.15;100.00
19797;BME280;10058;57.654;12.044;2024-01-30T11:58:16;101531.97;;;10.93;100.00
19797;BME280;10058;57.654;12.044;2024-01-30T12:00:41;101534.69;;;11.19;100.00
19797;BME280;10058;57.654;12.044;2024-01-30T12:03:06;101542.19;;;11.06;100.00
19797;BME280;10058;57.654;12.044;2024-01-30T12:05:32;101537.06;;;11.35;100.00
19797;BME280;10058;57.654;12.044;2024-01-30T12:07:57;101537.97;;;11.35;100.00
19797;BME280;10058;57.654;12.044;2024-01-30T12:10:24;101533.88;;;10.97;100.00
19797;BME280;10058;57.654;12.044;2024-01-30T12:12:49;101529.41;;;11.19;100.00
19797;BME280;10058;57.654;12.044;2024-01-30T12:15:15;101515.78;;;11.32;100.00
19797;BME280;10058;57.654;12.044;2024-01-30T12:17:41;101509.47;;;11.04;100.00
19797;BME280;10058;57.654;12.044;2024-01-30T12:20:07;101508.34;;;11.22;100.00
19797;BME280;10058;57.654;12.044;2024-01-30T12:22:36;101509.59;;;11.07;100.00
19797;BME280;10058;57.654;12.044;2024-01-30T12:25:02;101488.50;;;11.58;100.00